sensor_id;sensor_type;location;lat;lon;timestamp;P1;P2;P0
44871;PMS7003;30602;51.060;17.226;2023-02-22T00:01:26;21;20;15
44871;PMS7003;30602;51.060;17.226;2023-02-22T00:06:05;22;19;14
44871;PMS7003;30602;51.060;17.226;2023-02-22T00:10:24;30;24;16
44871;PMS7003;30602;51.060;17.226;2023-02-22T00:13:58;20;17;13
44871;PMS7003;30602;51.060;17.226;2023-02-22T00:17:52;21;15;11
44871;PMS7003;30602;51.060;17.226;2023-02-22T00:21:34;22;20;15
44871;PMS7003;30602;51.060;17.226;2023-02-22T00:26:03;30;25;17
44871;PMS7003;30602;51.060;17.226;2023-02-22T00:30:14;27;21;15
44871;PMS7003;30602;51.060;17.226;2023-02-22T00:34:14;32;27;18
44871;PMS7003;30602;51.060;17.226;2023-02-22T00:46:13;79;59;32
44871;PMS7003;30602;51.060;17.226;2023-02-22T00:50:35;79;59;32
44871;PMS7003;30602;51.060;17.226;2023-02-22T00:55:07;91;63;34
44871;PMS7003;30602;51.060;17.226;2023-02-22T00:59:34;55;42;26
44871;PMS7003;30602;51.060;17.226;2023-02-22T01:07:46;36;27;18
44871;PMS7003;30602;51.060;17.226;2023-02-22T01:11:32;30;25;17
44871;PMS7003;30602;51.060;17.226;2023-02-22T01:15:26;27;21;14
44871;PMS7003;30602;51.060;17.226;2023-02-22T01:19:47;28;21;14
44871;PMS7003;30602;51.060;17.226;2023-02-22T01:23:09;22;19;13
44871;PMS7003;30602;51.060;17.226;2023-02-22T01:27:35;30;25;17
44871;PMS7003;30602;51.060;17.226;2023-02-22T01:32:05;37;30;18
44871;PMS7003;30602;51.060;17.226;2023-02-22T01:35:49;27;26;19
44871;PMS7003;30602;51.060;17.226;2023-02-22T01:40:15;48;40;23
44871;PMS7003;30602;51.060;17.226;2023-02-22T01:48:49;30;20;13
44871;PMS7003;30602;51.060;17.226;2023-02-22T01:53:21;25;22;15
44871;PMS7003;30602;51.060;17.226;2023-02-22T01:57:19;38;32;19
44871;PMS7003;30602;51.060;17.226;2023-02-22T02:00:52;56;43;25
44871;PMS7003;30602;51.060;17.226;2023-02-22T02:05:11;44;37;25
44871;PMS7003;30602;51.060;17.226;2023-02-22T02:09:08;38;31;19
44871;PMS7003;30602;51.060;17.226;2023-02-22T02:13:14;31;29;20
44871;PMS7003;30602;51.060;17.226;2023-02-22T02:17:12;38;30;21
44871;PMS7003;30602;51.060;17.226;2023-02-22T02:32:54;71;54;30
44871;PMS7003;30602;51.060;17.226;2023-02-22T02:41:08;43;33;22
44871;PMS7003;30602;51.060;17.226;2023-02-22T02:45:01;34;29;20
44871;PMS7003;30602;51.060;17.226;2023-02-22T02:53:52;40;37;23
44871;PMS7003;30602;51.060;17.226;2023-02-22T02:58:04;44;39;24
44871;PMS7003;30602;51.060;17.226;2023-02-22T03:23:36;40;35;22
44871;PMS7003;30602;51.060;17.226;2023-02-22T03:27:22;35;28;18
44871;PMS7003;30602;51.060;17.226;2023-02-22T03:31:15;32;29;21
44871;PMS7003;30602;51.060;17.226;2023-02-22T03:35:43;33;30;19
44871;PMS7003;30602;51.060;17.226;2023-02-22T03:40:04;29;25;17
44871;PMS7003;30602;51.060;17.226;2023-02-22T03:44:03;33;27;17
44871;PMS7003;30602;51.060;17.226;2023-02-22T03:48:19;38;32;17
44871;PMS7003;30602;51.060;17.226;2023-02-22T03:52:36;28;23;17
44871;PMS7003;30602;51.060;17.226;2023-02-22T03:57:21;34;28;18
44871;PMS7003;30602;51.060;17.226;2023-02-22T04:00:56;23;21;15
44871;PMS7003;30602;51.060;17.226;2023-02-22T04:04:16;28;23;16
44871;PMS7003;30602;51.060;17.226;2023-02-22T04:08:35;28;25;18
44871;PMS7003;30602;51.060;17.226;2023-02-22T04:12:19;27;24;17
44871;PMS7003;30602;51.060;17.226;2023-02-22T04:16:52;33;27;17
44871;PMS7003;30602;51.060;17.226;2023-02-22T04:20:24;25;20;16
44871;PMS7003;30602;51.060;17.226;2023-02-22T04:24:12;28;24;17
44871;PMS7003;30602;51.060;17.226;2023-02-22T04:27:56;26;22;16
44871;PMS7003;30602;51.060;17.226;2023-02-22T04:31:31;22;21;15
44871;PMS7003;30602;51.060;17.226;2023-02-22T04:35:00;42;36;21
44871;PMS7003;30602;51.060;17.226;2023-02-22T04:38:36;29;26;16
44871;PMS7003;30602;51.060;17.226;2023-02-22T04:42:35;28;23;15
44871;PMS7003;30602;51.060;17.226;2023-02-22T04:45:58;32;26;15
44871;PMS7003;30602;51.060;17.226;2023-02-22T04:49:40;36;31;20
44871;PMS7003;30602;51.060;17.226;2023-02-22T04:53:37;32;28;21
44871;PMS7003;30602;51.060;17.226;2023-02-22T04:57:15;32;29;18
44871;PMS7003;30602;51.060;17.226;2023-02-22T05:00:52;25;21;15
44871;PMS7003;30602;51.060;17.226;2023-02-22T05:04:17;34;26;17
44871;PMS7003;30602;51.060;17.226;2023-02-22T05:08:34;35;27;18
44871;PMS7003;30602;51.060;17.226;2023-02-22T05:12:15;26;23;16
44871;PMS7003;30602;51.060;17.226;2023-02-22T05:16:27;30;22;15
44871;PMS7003;30602;51.060;17.226;2023-02-22T05:20:59;25;21;17
44871;PMS7003;30602;51.060;17.226;2023-02-22T05:24:53;29;20;14
44871;PMS7003;30602;51.060;17.226;2023-02-22T05:28:39;22;21;13
44871;PMS7003;30602;51.060;17.226;2023-02-22T05:32:03;28;23;15
44871;PMS7003;30602;51.060;17.226;2023-02-22T05:35:28;21;16;11
44871;PMS7003;30602;51.060;17.226;2023-02-22T05:39:04;20;19;13
44871;PMS7003;30602;51.060;17.226;2023-02-22T05:42:26;21;19;14
44871;PMS7003;30602;51.060;17.226;2023-02-22T05:46:21;28;21;15
44871;PMS7003;30602;51.060;17.226;2023-02-22T05:50:20;23;19;12
44871;PMS7003;30602;51.060;17.226;2023-02-22T05:54:14;27;21;15
44871;PMS7003;30602;51.060;17.226;2023-02-22T05:59:01;20;19;13
44871;PMS7003;30602;51.060;17.226;2023-02-22T06:02:23;23;20;14
44871;PMS7003;30602;51.060;17.226;2023-02-22T06:05:43;19;17;12
44871;PMS7003;30602;51.060;17.226;2023-02-22T06:10:19;24;23;15
44871;PMS7003;30602;51.060;17.226;2023-02-22T06:14:26;20;16;10
44871;PMS7003;30602;51.060;17.226;2023-02-22T06:22:00;23;19;13
44871;PMS7003;30602;51.060;17.226;2023-02-22T06:25:47;22;21;13
44871;PMS7003;30602;51.060;17.226;2023-02-22T06:29:10;17;16;11
44871;PMS7003;30602;51.060;17.226;2023-02-22T06:33:07;29;21;14
44871;PMS7003;30602;51.060;17.226;2023-02-22T06:36:51;23;20;13
44871;PMS7003;30602;51.060;17.226;2023-02-22T06:40:15;27;24;17
44871;PMS7003;30602;51.060;17.226;2023-02-22T06:43:50;30;26;16
44871;PMS7003;30602;51.060;17.226;2023-02-22T06:47:37;26;23;16
44871;PMS7003;30602;51.060;17.226;2023-02-22T06:50:58;25;21;16
44871;PMS7003;30602;51.060;17.226;2023-02-22T06:54:21;23;22;18
44871;PMS7003;30602;51.060;17.226;2023-02-22T06:57:43;26;24;16
44871;PMS7003;30602;51.060;17.226;2023-02-22T07:02:00;42;39;27
44871;PMS7003;30602;51.060;17.226;2023-02-22T07:06:28;42;39;25
44871;PMS7003;30602;51.060;17.226;2023-02-22T07:09:49;61;50;33
44871;PMS7003;30602;51.060;17.226;2023-02-22T07:13:18;65;50;31
44871;PMS7003;30602;51.060;17.226;2023-02-22T07:17:02;72;55;36
44871;PMS7003;30602;51.060;17.226;2023-02-22T07:21:00;43;37;24
44871;PMS7003;30602;51.060;17.226;2023-02-22T07:24:26;58;44;26
44871;PMS7003;30602;51.060;17.226;2023-02-22T07:28:14;49;43;27
44871;PMS7003;30602;51.060;17.226;2023-02-22T07:31:55;49;44;27
44871;PMS7003;30602;51.060;17.226;2023-02-22T07:36:04;72;54;35
44871;PMS7003;30602;51.060;17.226;2023-02-22T07:40:12;65;49;31
44871;PMS7003;30602;51.060;17.226;2023-02-22T07:44:59;60;48;28
44871;PMS7003;30602;51.060;17.226;2023-02-22T07:49:11;54;42;26
44871;PMS7003;30602;51.060;17.226;2023-02-22T07:53:02;50;40;27
44871;PMS7003;30602;51.060;17.226;2023-02-22T07:56:48;59;48;31
44871;PMS7003;30602;51.060;17.226;2023-02-22T08:02:25;55;44;29
44871;PMS7003;30602;51.060;17.226;2023-02-22T08:06:15;52;42;28
44871;PMS7003;30602;51.060;17.226;2023-02-22T08:10:10;57;47;31
44871;PMS7003;30602;51.060;17.226;2023-02-22T08:14:00;62;47;31
44871;PMS7003;30602;51.060;17.226;2023-02-22T08:17:57;54;42;27
44871;PMS7003;30602;51.060;17.226;2023-02-22T08:22:48;49;36;26
44871;PMS7003;30602;51.060;17.226;2023-02-22T08:26:44;47;39;24
44871;PMS7003;30602;51.060;17.226;2023-02-22T08:32:21;45;34;19
44871;PMS7003;30602;51.060;17.226;2023-02-22T08:36:47;34;28;21
44871;PMS7003;30602;51.060;17.226;2023-02-22T08:40:14;39;33;21
44871;PMS7003;30602;51.060;17.226;2023-02-22T08:43:56;34;31;21
44871;PMS7003;30602;51.060;17.226;2023-02-22T08:48:09;23;20;8
44871;PMS7003;30602;51.060;17.226;2023-02-22T08:55:45;35;28;16
44871;PMS7003;30602;51.060;17.226;2023-02-22T09:00:00;30;27;20
44871;PMS7003;30602;51.060;17.226;2023-02-22T09:04:13;39;30;21
44871;PMS7003;30602;51.060;17.226;2023-02-22T09:07:42;33;26;18
44871;PMS7003;30602;51.060;17.226;2023-02-22T09:11:17;22;21;15
44871;PMS7003;30602;51.060;17.226;2023-02-22T09:15:00;29;25;15
44871;PMS7003;30602;51.060;17.226;2023-02-22T09:18:28;17;15;10
44871;PMS7003;30602;51.060;17.226;2023-02-22T09:22:38;19;15;10
44871;PMS7003;30602;51.060;17.226;2023-02-22T09:26:52;14;11;8
44871;PMS7003;30602;51.060;17.226;2023-02-22T09:30:49;12;10;8
44871;PMS7003;30602;51.060;17.226;2023-02-22T09:34:19;12;10;8
44871;PMS7003;30602;51.060;17.226;2023-02-22T09:38:21;14;11;8
44871;PMS7003;30602;51.060;17.226;2023-02-22T09:49:53;9;9;7
44871;PMS7003;30602;51.060;17.226;2023-02-22T09:53:36;10;10;6
44871;PMS7003;30602;51.060;17.226;2023-02-22T09:57:50;12;7;5
44871;PMS7003;30602;51.060;17.226;2023-02-22T10:11:22;7;4;2
44871;PMS7003;30602;51.060;17.226;2023-02-22T10:22:46;5;4;2
44871;PMS7003;30602;51.060;17.226;2023-02-22T10:26:47;4;4;2
44871;PMS7003;30602;51.060;17.226;2023-02-22T10:31:15;7;4;3
44871;PMS7003;30602;51.060;17.226;2023-02-22T10:35:15;5;3;2
44871;PMS7003;30602;51.060;17.226;2023-02-22T10:43:22;3;2;1
44871;PMS7003;30602;51.060;17.226;2023-02-22T10:47:28;1;0;0
44871;PMS7003;30602;51.060;17.226;2023-02-22T10:51:39;2;2;1
44871;PMS7003;30602;51.060;17.226;2023-02-22T10:55:03;3;1;1
44871;PMS7003;30602;51.060;17.226;2023-02-22T10:58:38;3;2;1
44871;PMS7003;30602;51.060;17.226;2023-02-22T11:02:35;2;1;1
44871;PMS7003;30602;51.060;17.226;2023-02-22T11:06:41;1;1;1
44871;PMS7003;30602;51.060;17.226;2023-02-22T11:13:58;2;2;1
44871;PMS7003;30602;51.060;17.226;2023-02-22T11:18:42;5;2;1
44871;PMS7003;30602;51.060;17.226;2023-02-22T11:22:48;4;3;2
44871;PMS7003;30602;51.060;17.226;2023-02-22T11:26:17;4;3;1
44871;PMS7003;30602;51.060;17.226;2023-02-22T11:42:27;7;4;3
44871;PMS7003;30602;51.060;17.226;2023-02-22T11:46:13;4;3;2
44871;PMS7003;30602;51.060;17.226;2023-02-22T11:49:44;2;2;1
44871;PMS7003;30602;51.060;17.226;2023-02-22T12:05:08;2;2;2
44871;PMS7003;30602;51.060;17.226;2023-02-22T12:12:27;3;2;1
44871;PMS7003;30602;51.060;17.226;2023-02-22T12:28:38;4;3;2
44871;PMS7003;30602;51.060;17.226;2023-02-22T12:36:10;5;3;2
44871;PMS7003;30602;51.060;17.226;2023-02-22T12:40:31;3;3;2
44871;PMS7003;30602;51.060;17.226;2023-02-22T12:44:15;5;3;2
44871;PMS7003;30602;51.060;17.226;2023-02-22T12:56:41;4;3;1
44871;PMS7003;30602;51.060;17.226;2023-02-22T13:01:13;4;4;3
44871;PMS7003;30602;51.060;17.226;2023-02-22T13:04:46;4;2;1
44871;PMS7003;30602;51.060;17.226;2023-02-22T13:08:24;4;4;3
44871;PMS7003;30602;51.060;17.226;2023-02-22T13:16:06;5;4;3
44871;PMS7003;30602;51.060;17.226;2023-02-22T13:23:38;4;4;2
44871;PMS7003;30602;51.060;17.226;2023-02-22T13:27:27;4;4;3
44871;PMS7003;30602;51.060;17.226;2023-02-22T13:55:34;5;4;2
44871;PMS7003;30602;51.060;17.226;2023-02-22T14:07:44;6;4;3
44871;PMS7003;30602;51.060;17.226;2023-02-22T14:15:20;4;3;2
44871;PMS7003;30602;51.060;17.226;2023-02-22T14:19:26;4;3;2
44871;PMS7003;30602;51.060;17.226;2023-02-22T14:27:21;6;4;3
44871;PMS7003;30602;51.060;17.226;2023-02-22T14:30:44;5;3;1
44871;PMS7003;30602;51.060;17.226;2023-02-22T14:38:19;4;3;2
44871;PMS7003;30602;51.060;17.226;2023-02-22T14:41:42;3;3;1
44871;PMS7003;30602;51.060;17.226;2023-02-22T14:45:20;4;4;3
44871;PMS7003;30602;51.060;17.226;2023-02-22T14:48:48;6;4;3
44871;PMS7003;30602;51.060;17.226;2023-02-22T14:56:40;4;3;2
44871;PMS7003;30602;51.060;17.226;2023-02-22T15:00:24;10;5;4
44871;PMS7003;30602;51.060;17.226;2023-02-22T15:08:23;1;1;1
44871;PMS7003;30602;51.060;17.226;2023-02-22T15:12:12;4;4;3
44871;PMS7003;30602;51.060;17.226;2023-02-22T15:16:23;3;3;2
44871;PMS7003;30602;51.060;17.226;2023-02-22T15:19:50;5;4;3
44871;PMS7003;30602;51.060;17.226;2023-02-22T15:23:39;4;3;2
44871;PMS7003;30602;51.060;17.226;2023-02-22T15:27:21;4;4;3
44871;PMS7003;30602;51.060;17.226;2023-02-22T15:31:49;8;6;4
44871;PMS7003;30602;51.060;17.226;2023-02-22T15:39:17;9;6;4
44871;PMS7003;30602;51.060;17.226;2023-02-22T15:46:44;10;9;6
44871;PMS7003;30602;51.060;17.226;2023-02-22T15:54:15;12;10;7
44871;PMS7003;30602;51.060;17.226;2023-02-22T15:57:39;13;12;8
44871;PMS7003;30602;51.060;17.226;2023-02-22T16:01:35;13;11;7
44871;PMS7003;30602;51.060;17.226;2023-02-22T16:05:37;21;17;11
44871;PMS7003;30602;51.060;17.226;2023-02-22T16:13:32;27;24;12
44871;PMS7003;30602;51.060;17.226;2023-02-22T16:21:13;8;8;6
44871;PMS7003;30602;51.060;17.226;2023-02-22T16:28:51;9;7;5
44871;PMS7003;30602;51.060;17.226;2023-02-22T16:32:28;10;7;6
44871;PMS7003;30602;51.060;17.226;2023-02-22T16:44:04;8;7;5
44871;PMS7003;30602;51.060;17.226;2023-02-22T16:47:47;13;11;6
44871;PMS7003;30602;51.060;17.226;2023-02-22T16:52:07;9;9;7
44871;PMS7003;30602;51.060;17.226;2023-02-22T16:59:37;18;14;10
44871;PMS7003;30602;51.060;17.226;2023-02-22T17:03:02;17;16;11
44871;PMS7003;30602;51.060;17.226;2023-02-22T17:06:34;22;21;12
44871;PMS7003;30602;51.060;17.226;2023-02-22T17:10:13;22;18;12
44871;PMS7003;30602;51.060;17.226;2023-02-22T17:22:28;77;61;39
44871;PMS7003;30602;51.060;17.226;2023-02-22T17:26:02;44;39;24
44871;PMS7003;30602;51.060;17.226;2023-02-22T17:29:56;22;19;12
44871;PMS7003;30602;51.060;17.226;2023-02-22T17:34:20;36;29;19
44871;PMS7003;30602;51.060;17.226;2023-02-22T17:38:18;49;40;27
44871;PMS7003;30602;51.060;17.226;2023-02-22T17:42:18;46;38;25
44871;PMS7003;30602;51.060;17.226;2023-02-22T17:45:38;18;16;12
44871;PMS7003;30602;51.060;17.226;2023-02-22T17:49:38;26;22;16
44871;PMS7003;30602;51.060;17.226;2023-02-22T17:53:23;27;21;14
44871;PMS7003;30602;51.060;17.226;2023-02-22T17:56:56;34;27;16
44871;PMS7003;30602;51.060;17.226;2023-02-22T18:00:27;29;24;16
44871;PMS7003;30602;51.060;17.226;2023-02-22T18:04:38;30;26;15
44871;PMS7003;30602;51.060;17.226;2023-02-22T18:08:56;49;40;25
44871;PMS7003;30602;51.060;17.226;2023-02-22T18:12:34;31;27;17
44871;PMS7003;30602;51.060;17.226;2023-02-22T18:16:36;26;19;13
44871;PMS7003;30602;51.060;17.226;2023-02-22T18:20:19;20;17;12
44871;PMS7003;30602;51.060;17.226;2023-02-22T18:23:53;12;12;9
44871;PMS7003;30602;51.060;17.226;2023-02-22T18:27:49;20;14;10
44871;PMS7003;30602;51.060;17.226;2023-02-22T18:32:19;14;14;11
44871;PMS7003;30602;51.060;17.226;2023-02-22T18:36:13;22;19;13
44871;PMS7003;30602;51.060;17.226;2023-02-22T18:40:04;21;18;12
44871;PMS7003;30602;51.060;17.226;2023-02-22T18:43:50;23;19;12
44871;PMS7003;30602;51.060;17.226;2023-02-22T18:47:38;22;21;14
44871;PMS7003;30602;51.060;17.226;2023-02-22T18:51:24;28;23;14
44871;PMS7003;30602;51.060;17.226;2023-02-22T18:55:30;24;20;14
44871;PMS7003;30602;51.060;17.226;2023-02-22T18:59:17;22;19;13
44871;PMS7003;30602;51.060;17.226;2023-02-22T19:03:07;29;26;14
44871;PMS7003;30602;51.060;17.226;2023-02-22T19:06:44;24;20;12
44871;PMS7003;30602;51.060;17.226;2023-02-22T19:10:08;18;14;10
44871;PMS7003;30602;51.060;17.226;2023-02-22T19:13:56;23;18;12
44871;PMS7003;30602;51.060;17.226;2023-02-22T19:17:22;22;18;13
44871;PMS7003;30602;51.060;17.226;2023-02-22T19:20:57;18;16;11
44871;PMS7003;30602;51.060;17.226;2023-02-22T19:26:19;23;22;14
44871;PMS7003;30602;51.060;17.226;2023-02-22T19:30:05;18;15;11
44871;PMS7003;30602;51.060;17.226;2023-02-22T19:33:48;20;16;11
44871;PMS7003;30602;51.060;17.226;2023-02-22T19:37:36;14;12;9
44871;PMS7003;30602;51.060;17.226;2023-02-22T19:40:54;17;16;11
44871;PMS7003;30602;51.060;17.226;2023-02-22T19:48:19;21;15;11
44871;PMS7003;30602;51.060;17.226;2023-02-22T19:51:59;20;19;13
44871;PMS7003;30602;51.060;17.226;2023-02-22T20:00:37;21;15;11
44871;PMS7003;30602;51.060;17.226;2023-02-22T20:04:33;18;15;11
44871;PMS7003;30602;51.060;17.226;2023-02-22T20:08:16;21;14;10
44871;PMS7003;30602;51.060;17.226;2023-02-22T20:12:11;16;15;11
44871;PMS7003;30602;51.060;17.226;2023-02-22T20:16:06;17;15;10
44871;PMS7003;30602;51.060;17.226;2023-02-22T20:19:51;17;16;11
44871;PMS7003;30602;51.060;17.226;2023-02-22T20:23:14;22;15;11
44871;PMS7003;30602;51.060;17.226;2023-02-22T20:27:07;22;20;14
44871;PMS7003;30602;51.060;17.226;2023-02-22T20:34:45;17;16;11
44871;PMS7003;30602;51.060;17.226;2023-02-22T20:39:20;19;17;11
44871;PMS7003;30602;51.060;17.226;2023-02-22T20:43:13;26;19;12
44871;PMS7003;30602;51.060;17.226;2023-02-22T20:47:00;20;19;12
44871;PMS7003;30602;51.060;17.226;2023-02-22T20:50:25;22;21;12
44871;PMS7003;30602;51.060;17.226;2023-02-22T20:53:55;25;20;12
44871;PMS7003;30602;51.060;17.226;2023-02-22T20:57:31;18;17;12
44871;PMS7003;30602;51.060;17.226;2023-02-22T21:00:54;24;21;13
44871;PMS7003;30602;51.060;17.226;2023-02-22T21:04:21;27;22;14
44871;PMS7003;30602;51.060;17.226;2023-02-22T21:07:55;25;17;13
44871;PMS7003;30602;51.060;17.226;2023-02-22T21:11:25;37;29;17
44871;PMS7003;30602;51.060;17.226;2023-02-22T21:14:50;34;23;16
44871;PMS7003;30602;51.060;17.226;2023-02-22T21:19:18;25;23;15
44871;PMS7003;30602;51.060;17.226;2023-02-22T21:23:37;30;24;15
44871;PMS7003;30602;51.060;17.226;2023-02-22T21:27:24;41;33;23
44871;PMS7003;30602;51.060;17.226;2023-02-22T21:31:48;35;30;17
44871;PMS7003;30602;51.060;17.226;2023-02-22T21:35:12;34;26;20
44871;PMS7003;30602;51.060;17.226;2023-02-22T21:38:52;24;20;15
44871;PMS7003;30602;51.060;17.226;2023-02-22T21:42:48;36;30;17
44871;PMS7003;30602;51.060;17.226;2023-02-22T21:46:35;33;28;14
44871;PMS7003;30602;51.060;17.226;2023-02-22T21:50:02;30;26;16
44871;PMS7003;30602;51.060;17.226;2023-02-22T21:53:46;33;25;18
44871;PMS7003;30602;51.060;17.226;2023-02-22T21:57:19;35;26;18
44871;PMS7003;30602;51.060;17.226;2023-02-22T22:00:38;25;24;17
44871;PMS7003;30602;51.060;17.226;2023-02-22T22:04:22;34;30;18
44871;PMS7003;30602;51.060;17.226;2023-02-22T22:08:08;34;30;18
44871;PMS7003;30602;51.060;17.226;2023-02-22T22:12:11;32;29;16
44871;PMS7003;30602;51.060;17.226;2023-02-22T22:16:02;38;29;18
44871;PMS7003;30602;51.060;17.226;2023-02-22T22:19:52;36;26;18
44871;PMS7003;30602;51.060;17.226;2023-02-22T22:23:33;33;27;16
44871;PMS7003;30602;51.060;17.226;2023-02-22T22:27:49;43;31;19
44871;PMS7003;30602;51.060;17.226;2023-02-22T22:31:26;34;32;19
44871;PMS7003;30602;51.060;17.226;2023-02-22T22:35:06;29;26;17
44871;PMS7003;30602;51.060;17.226;2023-02-22T22:39:37;33;25;15
44871;PMS7003;30602;51.060;17.226;2023-02-22T22:42:59;29;25;17
44871;PMS7003;30602;51.060;17.226;2023-02-22T22:46:46;36;31;20
44871;PMS7003;30602;51.060;17.226;2023-02-22T22:50:43;35;22;14
44871;PMS7003;30602;51.060;17.226;2023-02-22T22:54:37;34;29;18
44871;PMS7003;30602;51.060;17.226;2023-02-22T22:58:21;31;24;18
44871;PMS7003;30602;51.060;17.226;2023-02-22T23:02:20;37;30;19
44871;PMS7003;30602;51.060;17.226;2023-02-22T23:06:15;34;29;18
44871;PMS7003;30602;51.060;17.226;2023-02-22T23:09:39;23;19;12
44871;PMS7003;30602;51.060;17.226;2023-02-22T23:13:07;35;29;17
44871;PMS7003;30602;51.060;17.226;2023-02-22T23:16:35;30;27;18
44871;PMS7003;30602;51.060;17.226;2023-02-22T23:20:49;32;28;17
44871;PMS7003;30602;51.060;17.226;2023-02-22T23:24:45;32;26;18
44871;PMS7003;30602;51.060;17.226;2023-02-22T23:28:39;29;23;17
44871;PMS7003;30602;51.060;17.226;2023-02-22T23:33:00;34;28;20
44871;PMS7003;30602;51.060;17.226;2023-02-22T23:36:24;36;29;16
44871;PMS7003;30602;51.060;17.226;2023-02-22T23:40:08;38;30;19
44871;PMS7003;30602;51.060;17.226;2023-02-22T23:43:42;43;34;20
44871;PMS7003;30602;51.060;17.226;2023-02-22T23:47:17;39;33;20
44871;PMS7003;30602;51.060;17.226;2023-02-22T23:51:04;41;34;22
44871;PMS7003;30602;51.060;17.226;2023-02-22T23:55:03;34;29;18
44871;PMS7003;30602;51.060;17.226;2023-02-22T23:58:59;31;27;18
